Time;durP1;ratioP1;P1;durP2;ratioP2;P2;SDS_P1;SDS_P2;PMS_P1;PMS_P2;Temp;Humidity;BMP_temperature;BMP_pressure;BME280_temperature;BME280_humidity;BME280_pressure;Samples;Min_cycle;Max_cycle;Signal;HPM_P1;HPM_P2
2023/12/26 00:00:52;;;;;;;1.15;0.60;;;10.70;99.90;;;;;;5119856;27;20042;-61
2023/12/26 00:03:18;;;;;;;1.95;0.80;;;11.20;99.90;;;;;;5120669;27;20023;-60
2023/12/26 00:05:44;;;;;;;2.20;0.80;;;10.70;99.90;;;;;;5110027;28;20073;-59
2023/12/26 00:08:10;;;;;;;3.80;1.08;;;10.70;99.90;;;;;;5119794;27;20039;-60
2023/12/26 00:10:35;;;;;;;3.75;1.30;;;11.20;99.90;;;;;;5112670;28;20430;-61
2023/12/26 00:13:02;;;;;;;5.00;1.40;;;11.00;99.90;;;;;;5129791;27;20049;-60
2023/12/26 00:15:28;;;;;;;5.20;2.60;;;11.30;99.90;;;;;;5126264;27;20545;-60
2023/12/26 00:17:54;;;;;;;6.03;3.30;;;10.90;99.90;;;;;;5112195;28;20038;-62
2023/12/26 00:20:19;;;;;;;6.97;2.10;;;11.30;99.90;;;;;;5110430;28;20040;-60
2023/12/26 00:22:45;;;;;;;5.20;2.03;;;10.90;99.90;;;;;;5111547;28;20467;-59
2023/12/26 00:25:11;;;;;;;4.18;1.50;;;11.10;99.90;;;;;;5109053;28;20049;-57
2023/12/26 00:27:39;;;;;;;5.32;1.33;;;11.00;99.90;;;;;;5131525;28;20042;-54
2023/12/26 00:30:06;;;;;;;4.28;1.00;;;10.90;99.90;;;;;;5131067;28;20051;-55
2023/12/26 00:32:32;;;;;;;7.80;1.25;;;11.00;99.90;;;;;;5131073;28;20363;-55
2023/12/26 00:34:58;;;;;;;4.18;1.50;;;11.30;99.90;;;;;;5126838;28;20113;-56
2023/12/26 00:37:24;;;;;;;4.75;1.40;;;11.40;99.90;;;;;;5131369;28;20035;-51
2023/12/26 00:39:50;;;;;;;5.40;3.53;;;10.90;99.90;;;;;;5116802;28;20047;-52
2023/12/26 00:42:15;;;;;;;5.00;2.20;;;11.10;99.90;;;;;;5132472;27;20401;-50
2023/12/26 00:44:41;;;;;;;6.45;2.00;;;11.00;99.90;;;;;;5126852;27;20096;-55
2023/12/26 00:47:07;;;;;;;8.63;2.03;;;11.10;99.90;;;;;;5113633;27;20027;-56
2023/12/26 00:49:32;;;;;;;8.88;1.33;;;11.10;99.90;;;;;;5131138;27;20545;-52
2023/12/26 00:51:58;;;;;;;15.82;1.73;;;11.80;99.90;;;;;;5126128;27;20130;-53
2023/12/26 00:54:24;;;;;;;13.52;2.15;;;11.10;99.90;;;;;;5117503;27;20140;-57
2023/12/26 00:56:49;;;;;;;12.88;1.85;;;11.10;99.90;;;;;;5096689;28;20482;-56
2023/12/26 00:59:15;;;;;;;11.80;1.80;;;12.10;99.90;;;;;;5114170;28;20073;-57
2023/12/26 01:01:41;;;;;;;5.10;1.00;;;11.30;99.90;;;;;;5114418;28;20043;-53
2023/12/26 01:04:07;;;;;;;5.40;0.98;;;11.50;99.90;;;;;;5116303;27;20039;-54
2023/12/26 01:06:33;;;;;;;4.80;0.80;;;11.80;99.90;;;;;;5117618;27;20050;-51
2023/12/26 01:08:58;;;;;;;6.50;0.70;;;11.50;99.90;;;;;;5116200;27;20043;-54
2023/12/26 01:11:24;;;;;;;4.93;0.70;;;11.30;99.90;;;;;;5121564;27;20047;-53
2023/12/26 01:13:50;;;;;;;6.70;0.73;;;11.10;99.90;;;;;;5133444;27;20082;-51
2023/12/26 01:16:15;;;;;;;3.72;0.60;;;11.20;99.90;;;;;;5127665;27;20040;-55
2023/12/26 01:18:41;;;;;;;4.53;0.75;;;10.30;99.90;;;;;;5113831;28;20031;-55
2023/12/26 01:21:08;;;;;;;9.60;1.00;;;10.60;99.90;;;;;;5118813;27;20027;-55
2023/12/26 01:23:34;;;;;;;6.22;0.80;;;10.40;99.90;;;;;;5117354;27;20555;-55
2023/12/26 01:26:00;;;;;;;8.98;0.85;;;10.40;99.90;;;;;;5114235;28;20031;-51
2023/12/26 01:28:26;;;;;;;4.35;0.57;;;10.50;99.90;;;;;;5123787;27;20055;-54
2023/12/26 01:30:52;;;;;;;4.85;0.93;;;10.20;99.90;;;;;;5111980;27;20122;-55
2023/12/26 01:33:17;;;;;;;6.30;0.77;;;10.60;99.90;;;;;;5114900;27;20047;-52
2023/12/26 01:35:43;;;;;;;10.07;0.82;;;10.90;99.90;;;;;;5132598;27;20457;-52
2023/12/26 01:38:09;;;;;;;6.30;1.38;;;10.60;99.90;;;;;;5116730;27;20043;-55
2023/12/26 01:40:34;;;;;;;3.00;0.88;;;10.60;99.90;;;;;;5134693;27;20092;-53
2023/12/26 01:43:00;;;;;;;7.68;1.17;;;10.20;99.90;;;;;;5133991;27;20482;-55
2023/12/26 01:45:26;;;;;;;5.25;0.75;;;10.80;99.90;;;;;;5132510;27;20549;-54
2023/12/26 01:47:58;;;;;;;5.53;0.90;;;10.30;99.90;;;;;;5134089;27;20582;-56
2023/12/26 01:50:25;;;;;;;5.45;0.80;;;10.70;99.90;;;;;;5115757;27;20454;-55
2023/12/26 01:52:51;;;;;;;3.38;0.70;;;10.30;99.90;;;;;;5122315;27;20042;-53
2023/12/26 01:55:18;;;;;;;4.78;0.70;;;11.00;99.90;;;;;;5117399;27;20494;-55
2023/12/26 01:57:45;;;;;;;9.30;1.33;;;10.50;99.90;;;;;;5117013;27;20042;-54
2023/12/26 02:00:11;;;;;;;7.45;0.93;;;10.40;99.90;;;;;;5095388;28;20089;-55
2023/12/26 02:02:38;;;;;;;4.93;1.00;;;10.60;99.90;;;;;;5113666;28;20042;-55
2023/12/26 02:05:04;;;;;;;5.18;1.00;;;10.50;99.90;;;;;;5113710;27;20049;-56
2023/12/26 02:07:29;;;;;;;12.82;1.35;;;11.20;99.90;;;;;;5119758;27;20042;-54
2023/12/26 02:09:55;;;;;;;9.88;1.38;;;11.00;99.90;;;;;;5127485;27;20031;-51
2023/12/26 02:12:21;;;;;;;15.98;1.60;;;10.40;99.90;;;;;;5133523;27;20031;-54
2023/12/26 02:14:47;;;;;;;13.90;2.20;;;10.80;99.90;;;;;;5133482;27;20515;-53
2023/12/26 02:17:20;;;;;;;10.95;1.58;;;10.50;99.90;;;;;;5117451;27;20082;-53
2023/12/26 02:19:47;;;;;;;10.20;1.67;;;11.20;99.90;;;;;;5115609;27;20043;-54
2023/12/26 02:22:13;;;;;;;15.73;3.03;;;11.00;99.90;;;;;;5132845;27;20042;-50
2023/12/26 02:24:43;;;;;;;16.30;1.50;;;11.20;99.90;;;;;;5114935;27;20044;-53
2023/12/26 02:27:25;;;;;;;8.02;1.30;;;11.40;99.90;;;;;;5128683;27;20510;-53
2023/12/26 02:29:53;;;;;;;15.32;1.67;;;10.70;99.90;;;;;;5127939;27;20467;-51
2023/12/26 02:32:21;;;;;;;10.88;2.15;;;10.70;99.90;;;;;;5118518;27;20090;-55
2023/12/26 02:34:48;;;;;;;12.13;1.73;;;10.80;99.90;;;;;;5120400;27;20071;-53
2023/12/26 02:37:15;;;;;;;8.10;0.90;;;10.70;99.90;;;;;;5113422;27;20624;-53
2023/12/26 02:39:43;;;;;;;5.07;1.10;;;10.70;99.90;;;;;;5120675;27;20393;-55
2023/12/26 02:42:10;;;;;;;8.52;1.45;;;10.70;99.90;;;;;;5120410;27;20039;-54
2023/12/26 02:44:36;;;;;;;8.52;1.38;;;10.80;99.90;;;;;;5118640;27;20035;-56
2023/12/26 02:47:02;;;;;;;7.82;1.23;;;10.90;99.90;;;;;;5120106;27;20038;-52
2023/12/26 02:49:27;;;;;;;11.93;1.20;;;10.70;99.90;;;;;;5118218;27;20039;-54
2023/12/26 02:51:53;;;;;;;11.15;1.23;;;10.70;99.90;;;;;;5122169;27;20038;-55
2023/12/26 02:54:18;;;;;;;13.73;1.65;;;10.80;99.90;;;;;;5124523;27;20031;-53
2023/12/26 02:56:46;;;;;;;7.65;1.40;;;10.90;99.90;;;;;;5115253;27;20046;-50
2023/12/26 02:59:12;;;;;;;8.63;1.00;;;10.60;99.90;;;;;;5124082;27;20407;-55
2023/12/26 03:01:37;;;;;;;9.48;1.15;;;11.00;99.90;;;;;;5114828;27;20050;-55
2023/12/26 03:04:03;;;;;;;10.05;1.85;;;11.10;99.90;;;;;;5115714;27;20077;-55
2023/12/26 03:06:29;;;;;;;6.40;1.30;;;10.60;99.90;;;;;;5081866;27;20039;-53
2023/12/26 03:08:55;;;;;;;9.68;2.10;;;11.00;99.90;;;;;;5122412;27;20698;-53
2023/12/26 03:11:20;;;;;;;9.45;1.23;;;11.10;99.90;;;;;;5117182;27;20122;-56
2023/12/26 03:13:46;;;;;;;15.50;1.50;;;11.20;99.90;;;;;;5118571;27;20103;-52
2023/12/26 03:16:12;;;;;;;17.23;1.60;;;11.00;99.90;;;;;;5124598;27;20035;-57
2023/12/26 03:18:37;;;;;;;13.48;1.73;;;11.00;99.90;;;;;;5131769;27;20043;-54
2023/12/26 03:21:03;;;;;;;13.13;1.65;;;11.10;99.90;;;;;;5130729;27;20081;-53
2023/12/26 03:23:29;;;;;;;15.00;2.80;;;11.40;99.90;;;;;;5131453;27;20493;-52
2023/12/26 03:25:54;;;;;;;12.52;1.63;;;11.50;99.90;;;;;;5130084;27;20042;-55
2023/12/26 03:28:20;;;;;;;16.35;1.92;;;11.50;99.90;;;;;;5099021;28;20039;-55
2023/12/26 03:30:46;;;;;;;11.45;1.75;;;11.40;99.90;;;;;;5111885;27;20397;-52
2023/12/26 03:33:12;;;;;;;6.25;0.88;;;10.70;99.90;;;;;;5093702;28;20039;-56
2023/12/26 03:35:37;;;;;;;5.07;0.90;;;10.60;99.90;;;;;;5111555;28;20050;-54
2023/12/26 03:38:03;;;;;;;5.53;0.77;;;10.00;99.90;;;;;;5122247;27;20385;-57
2023/12/26 03:40:29;;;;;;;5.30;0.85;;;9.70;99.90;;;;;;5120749;27;20063;-58
2023/12/26 03:42:55;;;;;;;4.75;0.75;;;9.30;99.90;;;;;;5098101;27;20043;-54
2023/12/26 03:45:21;;;;;;;4.85;1.02;;;9.40;99.90;;;;;;5116370;27;20359;-53
2023/12/26 03:47:47;;;;;;;7.80;1.48;;;9.10;99.90;;;;;;5119954;27;20042;-52
2023/12/26 03:50:13;;;;;;;9.43;1.02;;;9.40;99.90;;;;;;5123445;27;20031;-55
2023/12/26 03:52:40;;;;;;;6.70;1.27;;;9.40;99.90;;;;;;5114313;27;20044;-54
2023/12/26 03:55:06;;;;;;;5.45;1.10;;;9.10;99.90;;;;;;5123884;27;20024;-56
2023/12/26 03:57:32;;;;;;;4.28;0.90;;;9.10;99.90;;;;;;5123977;27;20042;-54
2023/12/26 03:59:58;;;;;;;7.10;1.63;;;9.40;99.90;;;;;;5111387;28;20039;-55
2023/12/26 04:02:23;;;;;;;7.70;1.38;;;9.30;99.90;;;;;;5093843;27;20042;-48
2023/12/26 04:04:49;;;;;;;5.95;0.85;;;9.40;99.90;;;;;;5107834;27;20473;-56
2023/12/26 04:07:15;;;;;;;11.45;1.90;;;9.40;99.90;;;;;;5113493;28;20043;-57
2023/12/26 04:09:41;;;;;;;7.55;1.02;;;9.30;99.90;;;;;;5107784;27;20035;-54
2023/12/26 04:12:06;;;;;;;6.55;1.48;;;9.40;99.90;;;;;;5119270;27;20050;-58
2023/12/26 04:14:32;;;;;;;11.23;1.42;;;9.40;99.90;;;;;;5095722;28;20154;-57
2023/12/26 04:16:58;;;;;;;8.48;1.65;;;9.30;99.90;;;;;;5113867;27;20539;-55
2023/12/26 04:19:25;;;;;;;7.32;1.58;;;9.20;99.90;;;;;;5092386;28;20036;-54
2023/12/26 04:21:51;;;;;;;10.00;1.60;;;9.20;99.90;;;;;;5119041;28;20046;-54
2023/12/26 04:24:16;;;;;;;9.88;1.38;;;9.20;99.90;;;;;;5114433;28;20028;-55
2023/12/26 04:26:42;;;;;;;5.38;1.10;;;9.10;99.90;;;;;;5112047;27;20035;-53
2023/12/26 04:29:08;;;;;;;9.00;1.60;;;9.10;99.90;;;;;;5126589;28;20418;-54
2023/12/26 04:31:33;;;;;;;10.65;1.15;;;9.10;99.90;;;;;;5118141;28;20371;-54
2023/12/26 04:33:59;;;;;;;11.02;1.20;;;9.30;99.90;;;;;;5130183;28;20561;-54
2023/12/26 04:36:25;;;;;;;7.63;1.02;;;9.10;99.90;;;;;;5116215;28;20142;-52
2023/12/26 04:38:51;;;;;;;5.80;0.98;;;9.10;99.90;;;;;;5095119;28;20039;-55
2023/12/26 04:41:16;;;;;;;15.75;1.40;;;9.10;99.90;;;;;;5122056;28;20401;-53
2023/12/26 04:43:42;;;;;;;6.88;1.00;;;9.20;99.90;;;;;;5125865;27;20515;-54
2023/12/26 04:46:16;;;;;;;7.88;1.00;;;9.30;99.90;;;;;;5123989;28;20043;-53
2023/12/26 04:48:42;;;;;;;7.03;1.02;;;9.10;99.90;;;;;;5130882;28;20046;-55
2023/12/26 04:51:07;;;;;;;8.70;1.40;;;9.20;99.90;;;;;;5124501;28;20493;-52
2023/12/26 04:53:33;;;;;;;8.85;1.65;;;9.20;99.90;;;;;;5124871;28;20114;-54
2023/12/26 04:55:59;;;;;;;9.27;1.33;;;9.20;99.90;;;;;;5124597;27;20031;-51
2023/12/26 04:58:24;;;;;;;6.28;1.10;;;9.20;99.90;;;;;;5115783;28;20085;-53
2023/12/26 05:00:50;;;;;;;3.38;0.70;;;9.10;99.90;;;;;;5127817;28;20470;-54
2023/12/26 05:03:15;;;;;;;12.45;1.95;;;9.20;99.90;;;;;;5123464;28;20122;-55
2023/12/26 05:05:41;;;;;;;7.30;1.30;;;9.20;99.90;;;;;;5127849;28;20060;-52
2023/12/26 05:08:07;;;;;;;7.28;1.38;;;9.10;99.90;;;;;;5120661;28;20023;-54
2023/12/26 05:10:33;;;;;;;7.50;1.10;;;9.10;99.90;;;;;;5127251;28;20035;-59
2023/12/26 05:12:59;;;;;;;13.45;1.50;;;9.10;99.90;;;;;;5115102;27;20040;-57
2023/12/26 05:15:24;;;;;;;12.18;1.83;;;9.20;99.90;;;;;;5116228;28;20092;-51
2023/12/26 05:17:50;;;;;;;13.45;1.58;;;9.20;99.90;;;;;;5122512;28;20039;-57
2023/12/26 05:20:16;;;;;;;12.88;1.20;;;9.00;99.90;;;;;;5114827;27;20101;-57
2023/12/26 05:22:42;;;;;;;10.35;1.77;;;9.10;99.90;;;;;;5119320;28;20042;-55
2023/12/26 05:25:10;;;;;;;5.35;1.27;;;9.20;99.90;;;;;;5129334;27;20039;-56
2023/12/26 05:27:36;;;;;;;14.90;1.52;;;9.20;99.90;;;;;;5125935;27;20042;-55
2023/12/26 05:30:02;;;;;;;8.85;1.13;;;9.10;99.90;;;;;;5131541;27;20059;-57
2023/12/26 05:32:28;;;;;;;7.35;1.20;;;9.20;99.90;;;;;;5127392;27;20085;-55
2023/12/26 05:34:55;;;;;;;5.10;0.82;;;9.10;99.90;;;;;;5117137;27;20515;-54
2023/12/26 05:37:22;;;;;;;7.45;1.40;;;9.40;99.90;;;;;;5105771;27;20051;-53
2023/12/26 05:39:47;;;;;;;11.32;1.25;;;9.30;99.90;;;;;;5125275;27;20118;-55
2023/12/26 05:42:13;;;;;;;6.57;1.42;;;9.20;99.90;;;;;;5124291;27;20119;-55
2023/12/26 05:44:39;;;;;;;6.55;1.17;;;9.30;99.90;;;;;;5129814;27;20032;-52
2023/12/26 05:47:05;;;;;;;13.27;1.50;;;9.40;99.90;;;;;;5126848;27;20043;-51
2023/12/26 05:49:31;;;;;;;14.98;2.42;;;9.40;99.90;;;;;;5114413;27;20100;-53
2023/12/26 05:51:56;;;;;;;10.77;2.08;;;9.40;99.90;;;;;;5125868;27;20035;-55
2023/12/26 05:54:22;;;;;;;6.50;1.15;;;9.40;99.90;;;;;;5133645;27;20047;-51
2023/12/26 05:56:48;;;;;;;9.18;1.58;;;9.70;99.90;;;;;;5117452;27;20031;-55
2023/12/26 05:59:13;;;;;;;9.40;1.42;;;9.50;99.90;;;;;;5116421;27;20036;-53
2023/12/26 06:01:45;;;;;;;9.00;1.63;;;9.50;99.90;;;;;;5116310;27;20390;-53
2023/12/26 06:04:10;;;;;;;10.13;1.70;;;9.70;99.90;;;;;;5127478;27;20042;-56
2023/12/26 06:06:36;;;;;;;9.43;1.55;;;9.60;99.90;;;;;;5132967;27;20031;-55
2023/12/26 06:09:02;;;;;;;10.10;1.75;;;9.70;99.90;;;;;;5132707;27;21413;-54
2023/12/26 06:11:27;;;;;;;9.93;1.50;;;9.70;99.90;;;;;;5129045;27;20042;-58
2023/12/26 06:13:53;;;;;;;14.60;1.45;;;9.60;99.90;;;;;;5130937;27;20035;-55
2023/12/26 06:16:19;;;;;;;14.15;1.50;;;9.80;99.90;;;;;;5119009;27;20047;-54
2023/12/26 06:18:44;;;;;;;8.48;1.55;;;9.80;99.90;;;;;;5114223;27;20087;-52
2023/12/26 06:21:10;;;;;;;5.55;1.40;;;9.70;99.90;;;;;;5115919;27;20490;-55
2023/12/26 06:23:36;;;;;;;11.68;1.42;;;9.70;99.90;;;;;;5094884;28;20035;-55
2023/12/26 06:26:01;;;;;;;10.88;1.30;;;9.60;99.90;;;;;;5122578;27;20380;-54
2023/12/26 06:28:27;;;;;;;11.88;1.88;;;9.70;99.90;;;;;;5120384;27;20043;-56
2023/12/26 06:30:53;;;;;;;9.10;1.73;;;9.70;99.90;;;;;;5129817;27;20042;-51
2023/12/26 06:33:19;;;;;;;11.95;1.42;;;9.60;99.90;;;;;;5123441;27;20031;-50
2023/12/26 06:35:45;;;;;;;12.25;2.28;;;9.60;99.90;;;;;;5126342;27;20470;-57
2023/12/26 06:38:14;;;;;;;10.68;1.90;;;9.60;99.90;;;;;;5125125;27;20028;-55
2023/12/26 06:40:40;;;;;;;17.17;2.20;;;9.40;99.90;;;;;;5121570;27;20040;-55
2023/12/26 06:43:07;;;;;;;11.45;1.70;;;9.50;99.90;;;;;;5131503;27;20031;-53
2023/12/26 06:45:33;;;;;;;8.52;2.15;;;9.60;99.90;;;;;;5122917;27;20036;-56
2023/12/26 06:47:58;;;;;;;9.32;1.63;;;9.40;99.90;;;;;;5117762;27;20050;-56
2023/12/26 06:50:24;;;;;;;12.75;2.08;;;9.50;99.90;;;;;;5127346;27;20046;-53
2023/12/26 06:52:50;;;;;;;10.25;1.23;;;9.40;99.90;;;;;;5112790;28;20064;-53
2023/12/26 06:55:15;;;;;;;12.23;1.80;;;9.40;99.90;;;;;;5115190;27;20058;-54
2023/12/26 06:57:41;;;;;;;13.32;1.85;;;9.30;99.90;;;;;;5120914;27;20064;-51
2023/12/26 07:00:07;;;;;;;15.43;3.13;;;9.40;99.90;;;;;;5125410;27;20038;-52
2023/12/26 07:02:34;;;;;;;14.68;2.28;;;9.50;99.90;;;;;;5123594;27;20035;-56
2023/12/26 07:05:00;;;;;;;14.80;2.30;;;9.30;99.90;;;;;;5128890;27;20154;-57
2023/12/26 07:07:25;;;;;;;18.77;2.25;;;9.50;99.90;;;;;;5130127;27;20185;-56
2023/12/26 07:09:51;;;;;;;7.47;1.73;;;9.40;99.90;;;;;;5105865;28;20094;-55
2023/12/26 07:12:17;;;;;;;14.88;2.00;;;9.40;99.90;;;;;;5112711;27;20395;-58
2023/12/26 07:14:43;;;;;;;18.33;1.90;;;9.50;99.90;;;;;;5127143;27;20126;-54
2023/12/26 07:17:09;;;;;;;21.33;2.67;;;9.50;99.90;;;;;;5119503;27;20046;-56
2023/12/26 07:19:34;;;;;;;9.30;1.65;;;9.40;99.90;;;;;;5125401;27;20148;-57
2023/12/26 07:22:00;;;;;;;15.30;1.88;;;9.60;99.90;;;;;;5117189;27;20124;-58
2023/12/26 07:24:26;;;;;;;13.48;1.92;;;9.40;99.90;;;;;;5114881;27;20386;-54
2023/12/26 07:26:51;;;;;;;19.30;1.80;;;9.60;99.90;;;;;;5111624;28;20035;-57
2023/12/26 07:29:17;;;;;;;11.75;2.15;;;9.40;99.90;;;;;;5121110;27;20062;-56
2023/12/26 07:31:43;;;;;;;16.17;1.88;;;9.50;99.90;;;;;;5127145;27;20101;-56
2023/12/26 07:34:09;;;;;;;8.30;1.38;;;9.60;99.90;;;;;;5094689;27;20470;-55
2023/12/26 07:36:35;;;;;;;14.82;2.20;;;9.60;99.90;;;;;;5101754;27;20042;-55
2023/12/26 07:39:01;;;;;;;11.05;1.63;;;9.50;99.90;;;;;;5118797;27;20071;-55
2023/12/26 07:41:27;;;;;;;10.48;1.20;;;9.50;99.90;;;;;;5117926;27;20066;-54
2023/12/26 07:43:54;;;;;;;9.90;1.58;;;9.60;99.90;;;;;;5117509;27;20525;-56
2023/12/26 07:46:21;;;;;;;11.25;2.30;;;9.50;99.90;;;;;;5118912;27;20039;-53
2023/12/26 07:48:47;;;;;;;14.43;1.98;;;9.50;99.90;;;;;;5096936;27;20051;-57
2023/12/26 07:51:12;;;;;;;18.88;2.33;;;9.40;99.90;;;;;;5119067;27;20412;-55
2023/12/26 07:53:38;;;;;;;11.13;1.80;;;9.30;99.90;;;;;;5120782;27;20093;-53
2023/12/26 07:56:04;;;;;;;7.38;1.75;;;9.20;99.90;;;;;;5113951;27;20043;-52
2023/12/26 07:58:30;;;;;;;15.75;2.22;;;9.10;99.90;;;;;;5116059;27;20100;-55
2023/12/26 08:00:56;;;;;;;17.27;3.08;;;9.10;99.90;;;;;;5121372;27;20474;-55
2023/12/26 08:03:22;;;;;;;12.38;1.92;;;9.20;99.90;;;;;;5095860;27;20086;-56
2023/12/26 08:05:48;;;;;;;14.35;1.73;;;9.20;99.90;;;;;;5113394;27;20448;-57
2023/12/26 08:08:13;;;;;;;16.10;1.95;;;9.30;99.90;;;;;;5117296;27;20031;-53
2023/12/26 08:10:44;;;;;;;15.68;2.58;;;9.30;99.90;;;;;;5096432;28;20067;-54
2023/12/26 08:13:10;;;;;;;13.32;1.80;;;9.30;99.90;;;;;;5115400;27;20035;-54
2023/12/26 08:15:36;;;;;;;14.45;2.78;;;9.40;99.90;;;;;;5116892;27;20046;-59
2023/12/26 08:18:02;;;;;;;22.27;2.15;;;9.20;99.90;;;;;;5116030;27;20061;-55
2023/12/26 08:20:27;;;;;;;13.75;1.75;;;9.10;99.90;;;;;;5115819;27;20032;-52
2023/12/26 08:22:53;;;;;;;16.33;2.50;;;9.30;99.90;;;;;;5112778;28;20084;-55
2023/12/26 08:25:19;;;;;;;13.88;1.85;;;9.10;99.90;;;;;;5119618;27;20067;-57
2023/12/26 08:27:44;;;;;;;19.30;2.15;;;9.00;99.90;;;;;;5092262;28;20043;-57
2023/12/26 08:30:11;;;;;;;13.40;2.58;;;9.20;99.90;;;;;;5116062;27;20058;-56
2023/12/26 08:32:36;;;;;;;13.60;1.80;;;9.10;99.90;;;;;;5113259;27;20058;-57
2023/12/26 08:35:02;;;;;;;13.38;2.85;;;9.10;99.90;;;;;;5115697;27;20039;-54
2023/12/26 08:37:28;;;;;;;17.40;2.55;;;9.00;99.90;;;;;;5111871;28;20092;-57
2023/12/26 08:39:54;;;;;;;11.90;1.98;;;9.10;99.90;;;;;;5114293;28;20042;-56
2023/12/26 08:42:19;;;;;;;15.38;1.70;;;8.90;99.90;;;;;;5096774;28;20501;-55
2023/12/26 08:44:45;;;;;;;17.65;2.80;;;9.10;99.90;;;;;;5115511;28;20046;-56
2023/12/26 08:47:11;;;;;;;15.80;2.25;;;9.10;99.90;;;;;;5095644;28;20455;-57
2023/12/26 08:49:36;;;;;;;16.58;2.13;;;9.00;99.90;;;;;;5115221;27;20173;-55
2023/12/26 08:52:02;;;;;;;15.10;2.40;;;9.20;99.90;;;;;;5114589;28;20040;-56
2023/12/26 08:54:28;;;;;;;20.67;2.75;;;9.10;99.90;;;;;;5115093;27;20044;-53
2023/12/26 08:56:54;;;;;;;9.10;1.58;;;9.10;99.90;;;;;;5112663;28;20099;-52
2023/12/26 08:59:20;;;;;;;16.15;1.95;;;9.20;99.90;;;;;;5115283;27;20363;-53
2023/12/26 09:01:46;;;;;;;13.95;2.67;;;9.20;99.90;;;;;;5113260;27;20039;-54
2023/12/26 09:04:12;;;;;;;12.43;1.98;;;9.40;99.90;;;;;;5098430;27;20031;-54
2023/12/26 09:06:38;;;;;;;19.98;2.13;;;9.40;99.90;;;;;;5102870;27;20366;-55
2023/12/26 09:09:04;;;;;;;12.25;1.88;;;9.50;99.90;;;;;;5122027;27;20046;-55
2023/12/26 09:11:29;;;;;;;14.23;2.13;;;9.40;99.90;;;;;;5100186;27;20050;-52
2023/12/26 09:13:55;;;;;;;19.50;2.33;;;9.40;99.90;;;;;;5119992;27;20119;-54
2023/12/26 09:16:21;;;;;;;16.63;2.38;;;9.60;99.90;;;;;;5113572;27;20110;-54
2023/12/26 09:18:47;;;;;;;11.93;1.77;;;9.60;99.90;;;;;;5119388;27;20046;-53
2023/12/26 09:21:13;;;;;;;15.27;1.98;;;9.60;99.90;;;;;;5118900;27;20035;-56
2023/12/26 09:23:39;;;;;;;14.40;2.03;;;9.50;99.90;;;;;;5121749;27;20103;-58
2023/12/26 09:26:06;;;;;;;17.17;2.03;;;9.50;99.90;;;;;;5119465;27;20039;-52
2023/12/26 09:28:32;;;;;;;12.50;2.15;;;9.60;99.90;;;;;;5117072;27;20055;-55
2023/12/26 09:30:58;;;;;;;18.25;2.22;;;9.50;99.90;;;;;;5122195;27;20047;-57
2023/12/26 09:33:25;;;;;;;24.30;2.45;;;9.60;99.90;;;;;;5127527;27;20077;-55
2023/12/26 09:35:51;;;;;;;14.75;2.03;;;9.60;99.90;;;;;;5118023;27;20546;-58
2023/12/26 09:38:16;;;;;;;15.05;2.00;;;9.70;99.90;;;;;;5115449;27;20048;-54
2023/12/26 09:40:42;;;;;;;10.10;1.63;;;9.70;99.90;;;;;;5121001;27;20387;-55
2023/12/26 09:43:08;;;;;;;10.45;2.08;;;10.20;99.90;;;;;;5113640;27;20038;-56
2023/12/26 09:45:34;;;;;;;24.83;1.98;;;9.70;99.90;;;;;;5105502;28;20063;-52
2023/12/26 09:48:00;;;;;;;14.57;1.90;;;9.60;99.90;;;;;;5114677;27;20100;-55
2023/12/26 09:50:26;;;;;;;11.20;2.15;;;9.60;99.90;;;;;;5113873;27;20375;-57
2023/12/26 09:52:59;;;;;;;16.83;2.03;;;9.60;99.90;;;;;;5113257;27;20478;-50
2023/12/26 09:55:27;;;;;;;23.75;2.95;;;9.60;99.90;;;;;;5115253;27;20085;-55
2023/12/26 09:57:56;;;;;;;14.55;1.90;;;9.80;99.90;;;;;;5116631;27;20096;-56
2023/12/26 10:00:23;;;;;;;13.57;2.53;;;9.70;99.90;;;;;;5115038;27;20056;-56
2023/12/26 10:02:49;;;;;;;11.95;1.90;;;9.80;99.90;;;;;;5115897;27;20031;-54
2023/12/26 10:05:15;;;;;;;17.38;2.03;;;9.80;99.90;;;;;;5112538;27;20043;-54
2023/12/26 10:07:41;;;;;;;21.13;2.15;;;9.80;99.90;;;;;;5111446;28;20188;-53
2023/12/26 10:10:07;;;;;;;15.57;2.05;;;9.80;99.90;;;;;;5117685;27;20035;-52
2023/12/26 10:12:34;;;;;;;14.52;1.88;;;9.90;99.90;;;;;;5112328;27;20383;-56
2023/12/26 10:15:02;;;;;;;11.40;1.92;;;9.90;99.90;;;;;;5113709;27;20135;-52
2023/12/26 10:17:28;;;;;;;13.00;2.47;;;9.90;99.90;;;;;;5122275;27;20138;-54
2023/12/26 10:19:58;;;;;;;14.98;2.55;;;9.80;99.90;;;;;;5120313;27;20044;-50
2023/12/26 10:22:25;;;;;;;18.02;2.55;;;9.80;99.90;;;;;;5111364;28;20039;-58
2023/12/26 10:24:51;;;;;;;15.13;2.45;;;9.90;99.90;;;;;;5112542;27;20125;-56
2023/12/26 10:27:17;;;;;;;12.57;1.83;;;10.20;99.90;;;;;;5128190;27;20034;-54
2023/12/26 10:29:54;;;;;;;11.65;2.05;;;10.50;99.90;;;;;;5131124;27;20051;-52
2023/12/26 10:32:24;;;;;;;17.25;2.13;;;10.80;99.90;;;;;;5132099;27;20046;-56
2023/12/26 10:34:51;;;;;;;21.65;2.78;;;10.80;99.90;;;;;;5125811;27;20034;-55
2023/12/26 10:37:21;;;;;;;12.88;2.47;;;10.80;99.90;;;;;;5129815;27;20038;-56
2023/12/26 10:39:47;;;;;;;13.02;1.88;;;10.60;99.90;;;;;;5111898;27;20035;-53
2023/12/26 10:42:16;;;;;;;11.48;2.47;;;10.50;99.90;;;;;;5117159;27;20119;-55
2023/12/26 10:45:00;;;;;;;18.95;2.08;;;10.50;99.90;;;;;;5129604;27;20039;-57
2023/12/26 10:47:28;;;;;;;18.20;2.30;;;10.20;99.90;;;;;;5131084;27;20047;-55
2023/12/26 10:49:55;;;;;;;15.40;2.33;;;10.20;99.90;;;;;;5121301;27;20049;-57
2023/12/26 10:52:23;;;;;;;15.00;2.38;;;10.20;99.90;;;;;;5123343;27;20039;-54
2023/12/26 10:54:52;;;;;;;13.95;2.33;;;10.10;99.90;;;;;;5099705;28;20043;-56
2023/12/26 10:57:18;;;;;;;16.42;2.60;;;10.10;99.90;;;;;;5097680;28;20118;-57
2023/12/26 13:51:58;;;;;;;15.57;2.05;;;9.80;99.90;;;;;;5132587;27;20130;-54
2023/12/26 13:55:02;;;;;;;14.65;1.80;;;9.80;99.90;;;;;;5132737;27;20114;-56
2023/12/26 13:58:05;;;;;;;11.23;1.80;;;9.80;99.90;;;;;;5115619;27;20048;-53
2023/12/26 14:01:08;;;;;;;12.32;1.95;;;9.70;99.90;;;;;;5093620;28;20051;-54
2023/12/26 14:04:11;;;;;;;5.50;1.00;;;9.70;99.90;;;;;;5112319;27;20475;-51
2023/12/26 14:07:14;;;;;;;10.77;1.80;;;9.60;99.90;;;;;;5112103;28;20083;-56
2023/12/26 14:10:17;;;;;;;8.05;1.33;;;9.60;99.90;;;;;;5112394;28;20490;-53
2023/12/26 14:13:21;;;;;;;11.52;1.13;;;9.50;99.90;;;;;;5111952;28;20045;-55
2023/12/26 14:16:24;;;;;;;8.85;1.20;;;9.40;99.90;;;;;;5112234;28;20146;-55
2023/12/26 14:19:27;;;;;;;8.77;1.30;;;9.30;99.90;;;;;;5111722;28;20104;-55
2023/12/26 14:22:30;;;;;;;6.57;1.25;;;9.40;99.90;;;;;;5112407;27;20039;-52
2023/12/26 14:25:33;;;;;;;6.13;0.75;;;9.20;99.90;;;;;;5113411;27;20039;-50
2023/12/26 14:28:36;;;;;;;6.68;1.10;;;9.10;99.90;;;;;;5114484;27;20398;-57
2023/12/26 14:31:39;;;;;;;7.22;0.90;;;9.10;99.90;;;;;;5113508;27;20059;-55
2023/12/26 14:34:42;;;;;;;5.13;1.13;;;9.00;99.90;;;;;;5115455;27;20035;-53
2023/12/26 14:37:45;;;;;;;7.78;1.55;;;8.90;99.90;;;;;;5114329;27;20482;-55
2023/12/26 14:40:48;;;;;;;6.72;0.90;;;9.00;99.90;;;;;;5112685;27;20489;-56
2023/12/26 14:43:54;;;;;;;6.30;0.85;;;8.90;99.90;;;;;;5113368;27;20549;-56
2023/12/26 14:46:57;;;;;;;5.28;0.65;;;8.70;99.90;;;;;;5112872;27;20035;-54
2023/12/26 14:50:00;;;;;;;7.28;0.70;;;8.70;99.90;;;;;;5116012;27;20073;-52
2023/12/26 14:53:04;;;;;;;5.50;0.77;;;8.70;99.90;;;;;;5115056;27;20044;-56
2023/12/26 14:56:07;;;;;;;5.33;0.67;;;8.60;99.90;;;;;;5114095;27;20043;-57
2023/12/26 14:59:10;;;;;;;8.80;1.38;;;8.50;99.90;;;;;;5112725;27;20491;-55
2023/12/26 15:01:56;;;;;;;8.73;0.60;;;8.60;99.90;;;;;;5115601;27;20394;-55
2023/12/26 15:04:23;;;;;;;12.35;0.80;;;8.50;99.90;;;;;;5116235;27;20061;-54
2023/12/26 15:06:48;;;;;;;10.32;1.80;;;8.60;99.90;;;;;;5114048;27;20494;-57
2023/12/26 15:09:14;;;;;;;5.97;0.90;;;8.50;99.90;;;;;;5114285;27;20043;-51
2023/12/26 15:11:40;;;;;;;6.93;0.93;;;8.40;99.90;;;;;;5114760;27;20039;-55
2023/12/26 15:14:05;;;;;;;7.95;1.10;;;8.40;99.90;;;;;;5115106;27;20132;-53
2023/12/26 15:16:31;;;;;;;5.88;0.60;;;8.40;99.90;;;;;;5080478;27;20039;-57
2023/12/26 15:18:57;;;;;;;11.27;1.27;;;8.30;99.90;;;;;;5115928;27;20093;-57
2023/12/26 15:21:22;;;;;;;9.02;0.80;;;8.20;99.90;;;;;;5114148;27;20637;-55
2023/12/26 15:23:49;;;;;;;6.55;1.40;;;8.40;99.90;;;;;;5115053;27;20036;-55
2023/12/26 15:26:15;;;;;;;4.10;1.17;;;8.20;99.90;;;;;;5113202;27;20122;-56
2023/12/26 15:28:45;;;;;;;11.38;2.15;;;8.20;99.90;;;;;;5097363;28;20088;-54
2023/12/26 15:31:15;;;;;;;9.32;1.45;;;8.30;99.90;;;;;;5113267;27;20048;-56
2023/12/26 15:33:44;;;;;;;9.80;1.10;;;8.20;99.90;;;;;;5121869;27;20047;-52
2023/12/26 15:36:20;;;;;;;9.27;1.00;;;8.10;99.90;;;;;;5114070;27;20112;-55
2023/12/26 15:38:47;;;;;;;11.88;1.83;;;8.00;99.90;;;;;;5115095;27;20473;-57
2023/12/26 15:41:12;;;;;;;6.50;1.00;;;8.20;99.90;;;;;;5117369;27;20063;-55
2023/12/26 15:43:39;;;;;;;9.07;1.20;;;8.00;99.90;;;;;;5114479;27;20038;-56
2023/12/26 15:46:17;;;;;;;8.35;0.90;;;8.10;99.90;;;;;;5114590;27;20386;-55
2023/12/26 15:48:44;;;;;;;7.07;0.95;;;8.10;99.90;;;;;;5112925;27;20052;-56